Time;durP1;ratioP1;P1;durP2;ratioP2;P2;SDS_P1;SDS_P2;PMS_P1;PMS_P2;Temp;Humidity;BMP_temperature;BMP_pressure;BME280_temperature;BME280_humidity;BME280_pressure;Samples;Min_cycle;Max_cycle;Signal;HPM_P1;HPM_P2
2022/09/27 00:00:15;;;;;;;14.00;12.00;;;13.60;99.90;;;;;;5024021;28;20219;-73
2022/09/27 00:02:42;;;;;;;15.37;13.00;;;13.70;99.90;;;;;;5024539;28;20211;-72
2022/09/27 00:05:10;;;;;;;13.47;12.07;;;13.60;99.90;;;;;;5015154;28;20314;-72
2022/09/27 00:07:37;;;;;;;16.27;13.77;;;13.60;99.90;;;;;;5015546;28;20219;-73
2022/09/27 00:10:05;;;;;;;16.47;14.00;;;13.60;99.90;;;;;;5028342;28;20211;-72
2022/09/27 00:12:31;;;;;;;16.23;13.60;;;13.60;99.90;;;;;;5030092;28;20198;-71
2022/09/27 00:14:59;;;;;;;15.87;13.10;;;13.60;99.90;;;;;;5034536;28;20217;-72
2022/09/27 00:17:26;;;;;;;16.33;14.07;;;13.50;99.90;;;;;;5035583;28;20206;-71
2022/09/27 00:19:54;;;;;;;15.53;13.30;;;13.50;99.90;;;;;;5045783;28;20206;-71
2022/09/27 00:22:23;;;;;;;15.27;13.57;;;13.50;99.90;;;;;;5019042;28;20260;-72
2022/09/27 00:24:50;;;;;;;16.90;14.13;;;13.50;99.90;;;;;;5015705;28;20200;-69
2022/09/27 00:27:17;;;;;;;15.40;13.00;;;13.50;99.90;;;;;;5027134;28;20202;-73
2022/09/27 00:29:44;;;;;;;14.50;13.00;;;13.50;99.90;;;;;;5014562;28;20204;-72
2022/09/27 00:32:11;;;;;;;16.40;12.47;;;13.50;99.90;;;;;;5018733;28;20231;-72
2022/09/27 00:34:38;;;;;;;14.90;13.27;;;13.50;99.90;;;;;;5023804;28;20209;-71
2022/09/27 00:37:06;;;;;;;14.77;13.20;;;13.50;99.90;;;;;;5020159;28;20223;-72
2022/09/27 00:39:34;;;;;;;13.33;11.93;;;13.50;99.90;;;;;;5036584;28;20586;-72
2022/09/27 00:42:01;;;;;;;14.37;12.77;;;13.50;99.90;;;;;;5030859;28;20206;-72
2022/09/27 00:45:03;;;;;;;14.50;12.80;;;13.60;99.90;;;;;;5015656;28;20564;-73
2022/09/27 00:47:39;;;;;;;16.27;13.00;;;13.60;99.90;;;;;;5021477;28;20563;-72
2022/09/27 00:50:12;;;;;;;15.43;13.50;;;13.60;99.90;;;;;;5037550;28;20214;-72
2022/09/27 00:52:45;;;;;;;15.93;13.93;;;13.60;99.90;;;;;;5034921;28;20563;-72
2022/09/27 00:55:17;;;;;;;14.73;12.60;;;13.60;99.90;;;;;;5026878;28;20222;-73
2022/09/27 00:57:46;;;;;;;15.23;13.07;;;13.50;99.90;;;;;;5031160;28;20210;-72
2022/09/27 01:00:15;;;;;;;14.67;13.07;;;13.50;99.90;;;;;;5026356;28;20584;-72
2022/09/27 01:02:45;;;;;;;16.07;13.03;;;13.50;99.90;;;;;;5018818;28;20206;-72
2022/09/27 01:05:15;;;;;;;16.40;12.87;;;13.50;99.90;;;;;;5016262;28;20203;-72
2022/09/27 01:07:42;;;;;;;15.83;13.07;;;13.50;99.90;;;;;;5033442;28;20230;-72
2022/09/27 01:10:10;;;;;;;15.73;12.33;;;13.60;99.90;;;;;;5040585;28;20211;-71
2022/09/27 01:12:50;;;;;;;12.57;11.27;;;13.60;99.90;;;;;;5031412;28;20217;-72
2022/09/27 01:15:25;;;;;;;13.13;10.90;;;13.70;99.90;;;;;;5033687;28;20210;-72
2022/09/27 01:18:10;;;;;;;13.30;11.70;;;13.60;99.90;;;;;;5036857;28;20271;-72
2022/09/27 01:21:12;;;;;;;14.33;11.80;;;13.60;99.90;;;;;;5041144;28;20687;-71
2022/09/27 01:24:02;;;;;;;14.87;12.67;;;13.60;99.90;;;;;;5014337;28;20581;-71
2022/09/27 01:26:45;;;;;;;15.80;12.77;;;13.60;99.90;;;;;;5015944;28;20568;-71
2022/09/27 01:29:26;;;;;;;13.87;12.30;;;13.60;99.90;;;;;;5031381;28;20578;-71
2022/09/27 01:32:04;;;;;;;16.53;13.50;;;13.50;99.90;;;;;;5034540;28;20292;-71
2022/09/27 01:34:40;;;;;;;16.87;13.47;;;13.50;99.90;;;;;;5018931;28;20660;-72
2022/09/27 01:37:13;;;;;;;14.40;12.63;;;13.50;99.90;;;;;;5028179;28;20202;-72
2022/09/27 01:39:48;;;;;;;13.87;12.47;;;13.50;99.90;;;;;;5020716;28;20206;-72
2022/09/27 01:42:23;;;;;;;15.80;12.73;;;13.50;99.90;;;;;;5035396;28;20217;-73
2022/09/27 01:44:54;;;;;;;14.40;12.90;;;13.50;99.90;;;;;;5027083;28;20206;-73
2022/09/27 01:47:24;;;;;;;15.77;13.30;;;13.50;99.90;;;;;;5020187;28;20210;-72
2022/09/27 01:49:57;;;;;;;15.10;12.73;;;13.50;99.90;;;;;;5027225;28;20237;-71
2022/09/27 01:52:30;;;;;;;14.33;12.20;;;13.50;99.90;;;;;;5029244;28;20217;-72
2022/09/27 01:55:00;;;;;;;14.50;12.83;;;13.50;99.90;;;;;;5028569;28;20207;-72
2022/09/27 01:57:33;;;;;;;15.00;13.37;;;13.50;99.90;;;;;;5034395;28;21488;-72
2022/09/27 02:00:03;;;;;;;16.30;13.67;;;13.40;99.90;;;;;;5031677;28;20594;-71
2022/09/27 02:02:35;;;;;;;15.10;12.90;;;13.40;99.90;;;;;;5021086;28;20238;-72
2022/09/27 02:05:05;;;;;;;15.33;13.00;;;13.40;99.90;;;;;;5035908;28;20301;-71
2022/09/27 02:07:37;;;;;;;17.20;13.77;;;13.40;99.90;;;;;;5025058;28;20222;-71
2022/09/27 02:10:09;;;;;;;15.20;13.17;;;13.40;99.90;;;;;;5031399;28;20220;-72
2022/09/27 02:12:44;;;;;;;15.60;12.93;;;13.30;99.90;;;;;;5021181;28;20206;-73
2022/09/27 02:15:14;;;;;;;14.73;12.80;;;13.30;99.90;;;;;;5028990;28;20282;-72
2022/09/27 02:17:47;;;;;;;16.90;12.87;;;13.30;99.90;;;;;;5022133;28;20238;-72
2022/09/27 02:20:19;;;;;;;15.73;13.00;;;13.30;99.90;;;;;;5040254;28;20222;-72
2022/09/27 02:22:50;;;;;;;15.87;13.20;;;13.30;99.90;;;;;;5020223;28;20234;-73
2022/09/27 02:25:22;;;;;;;15.57;13.63;;;13.30;99.90;;;;;;5033348;28;20253;-73
2022/09/27 02:27:57;;;;;;;17.37;14.37;;;13.20;99.90;;;;;;5024391;28;20202;-72
2022/09/27 02:30:24;;;;;;;17.60;14.30;;;13.30;99.90;;;;;;5037651;28;20273;-73
2022/09/27 02:32:53;;;;;;;18.77;14.03;;;13.30;99.90;;;;;;5014096;28;20203;-74
2022/09/27 02:35:25;;;;;;;14.83;13.23;;;13.30;99.90;;;;;;5018066;28;20207;-72
2022/09/27 02:37:53;;;;;;;17.40;14.50;;;13.30;99.90;;;;;;5013102;28;20203;-73
2022/09/27 02:40:20;;;;;;;16.30;14.30;;;13.30;99.90;;;;;;5033533;28;20616;-73
2022/09/27 02:42:47;;;;;;;15.77;13.43;;;13.20;99.90;;;;;;5016386;28;20203;-72
2022/09/27 02:45:18;;;;;;;17.10;14.10;;;13.30;99.90;;;;;;5021745;28;20213;-72
2022/09/27 02:47:58;;;;;;;17.03;14.83;;;13.30;99.90;;;;;;5016377;28;20222;-71
2022/09/27 02:50:48;;;;;;;16.70;12.97;;;13.30;99.90;;;;;;5021554;28;20207;-72
2022/09/27 02:53:22;;;;;;;18.47;14.73;;;13.40;99.90;;;;;;5019674;28;20213;-71
2022/09/27 02:55:56;;;;;;;17.73;14.47;;;13.40;99.90;;;;;;5030764;28;20199;-72
2022/09/27 02:58:34;;;;;;;17.90;14.60;;;13.30;99.90;;;;;;5030135;28;20201;-73
2022/09/27 03:01:08;;;;;;;15.90;14.20;;;13.40;99.90;;;;;;5027782;28;20225;-72
2022/09/27 03:03:42;;;;;;;15.83;14.13;;;13.40;99.90;;;;;;5016489;28;20211;-72
2022/09/27 03:06:11;;;;;;;16.93;14.90;;;13.30;99.90;;;;;;5016084;28;20206;-72
2022/09/27 03:08:39;;;;;;;16.17;14.33;;;13.30;99.90;;;;;;5016672;28;20233;-73
2022/09/27 03:11:06;;;;;;;18.43;15.13;;;13.30;99.90;;;;;;5034333;28;20233;-73
2022/09/27 03:13:33;;;;;;;18.90;15.17;;;13.20;99.90;;;;;;5025073;28;20205;-74
2022/09/27 03:16:00;;;;;;;18.77;15.63;;;13.30;99.90;;;;;;5035967;28;20302;-73
2022/09/27 03:18:27;;;;;;;17.50;14.77;;;13.20;99.90;;;;;;5036288;28;20206;-74
2022/09/27 03:20:55;;;;;;;19.00;15.83;;;13.20;99.90;;;;;;5029158;28;20215;-72
2022/09/27 03:23:22;;;;;;;18.73;15.47;;;13.20;99.90;;;;;;5019786;28;20249;-73
2022/09/27 03:25:49;;;;;;;19.17;15.63;;;13.20;99.90;;;;;;5034475;28;20218;-72
2022/09/27 03:28:16;;;;;;;20.37;16.57;;;13.20;99.90;;;;;;5027001;28;20250;-72
2022/09/27 03:30:45;;;;;;;19.20;15.37;;;13.20;99.90;;;;;;5033580;28;20222;-72
2022/09/27 03:33:12;;;;;;;21.03;15.87;;;13.20;99.90;;;;;;5016836;28;20211;-73
2022/09/27 03:35:40;;;;;;;21.17;16.33;;;13.20;99.90;;;;;;5018677;28;20281;-73
2022/09/27 03:38:09;;;;;;;23.43;17.10;;;13.30;99.90;;;;;;5029263;28;20687;-72
2022/09/27 03:40:36;;;;;;;19.53;15.63;;;13.30;99.90;;;;;;5031840;28;20214;-73
2022/09/27 03:43:03;;;;;;;19.73;16.80;;;13.30;99.90;;;;;;5029344;28;20211;-73
2022/09/27 03:45:30;;;;;;;20.50;16.90;;;13.30;99.90;;;;;;5016725;28;20282;-72
2022/09/27 03:47:56;;;;;;;21.97;16.50;;;13.30;99.90;;;;;;5017144;28;20208;-72
2022/09/27 03:50:24;;;;;;;21.80;17.20;;;13.20;99.90;;;;;;5025239;28;20227;-73
2022/09/27 03:52:51;;;;;;;22.57;17.93;;;13.20;99.90;;;;;;5035609;28;20256;-72
2022/09/27 03:55:19;;;;;;;23.70;17.50;;;13.20;99.90;;;;;;5027176;28;20210;-72
2022/09/27 03:57:47;;;;;;;22.07;17.93;;;13.20;99.90;;;;;;5021373;28;20345;-72
2022/09/27 04:00:14;;;;;;;22.87;18.27;;;13.20;99.90;;;;;;5021883;28;20213;-72
2022/09/27 04:02:41;;;;;;;21.97;16.87;;;13.20;99.90;;;;;;5023589;28;20294;-72
2022/09/27 04:05:08;;;;;;;23.50;18.57;;;13.10;99.90;;;;;;5033312;28;20213;-72
2022/09/27 04:07:36;;;;;;;23.60;18.50;;;13.20;99.90;;;;;;5042981;28;20202;-72
2022/09/27 04:10:04;;;;;;;24.27;18.47;;;13.20;99.90;;;;;;5023236;28;20227;-73
2022/09/27 04:12:32;;;;;;;24.20;19.10;;;13.20;99.90;;;;;;5015914;28;20211;-73
2022/09/27 04:14:59;;;;;;;24.17;18.27;;;13.20;99.90;;;;;;5021789;28;20291;-72
2022/09/27 04:17:26;;;;;;;28.50;19.20;;;13.20;99.90;;;;;;5021435;28;20241;-73
2022/09/27 04:19:53;;;;;;;26.13;19.53;;;13.20;99.90;;;;;;5035665;28;20206;-73
2022/09/27 04:22:19;;;;;;;27.57;19.10;;;13.20;99.90;;;;;;5032071;28;20223;-72
2022/09/27 04:24:46;;;;;;;23.93;18.53;;;13.20;99.90;;;;;;5027036;28;20199;-73
2022/09/27 04:27:13;;;;;;;25.37;18.93;;;13.20;99.90;;;;;;5020308;28;20211;-73
2022/09/27 04:29:44;;;;;;;21.80;17.50;;;13.20;99.90;;;;;;5026560;28;20221;-72
2022/09/27 04:32:11;;;;;;;25.23;18.63;;;13.20;99.90;;;;;;5026780;28;20199;-72
2022/09/27 04:37:23;;;;;;;25.70;19.33;;;13.30;99.90;;;;;;5035974;28;20230;-73
2022/09/27 04:39:50;;;;;;;25.83;18.77;;;13.30;99.90;;;;;;5024650;28;20207;-73
2022/09/27 04:42:17;;;;;;;23.23;18.27;;;13.30;99.90;;;;;;5029920;28;20213;-72
2022/09/27 04:44:46;;;;;;;25.77;19.37;;;13.30;99.90;;;;;;5036779;28;20293;-72
2022/09/27 04:47:13;;;;;;;25.47;19.23;;;13.30;99.90;;;;;;5032896;28;20205;-71
2022/09/27 04:49:40;;;;;;;25.63;18.77;;;13.20;99.90;;;;;;5029604;28;20740;-72
2022/09/27 04:52:07;;;;;;;26.83;19.60;;;13.20;99.90;;;;;;5026370;28;20693;-72
2022/09/27 04:54:34;;;;;;;28.53;21.43;;;13.10;99.90;;;;;;5024651;28;20555;-72
2022/09/27 04:57:00;;;;;;;27.83;19.93;;;13.20;99.90;;;;;;5031230;28;20223;-72
2022/09/27 04:59:27;;;;;;;27.90;19.77;;;13.20;99.90;;;;;;5039003;28;20206;-72
2022/09/27 05:01:58;;;;;;;25.27;19.10;;;13.20;99.90;;;;;;5026988;28;20553;-70
2022/09/27 05:04:25;;;;;;;23.83;18.40;;;13.10;99.90;;;;;;5031465;28;20750;-69
2022/09/27 05:06:52;;;;;;;26.40;19.60;;;13.10;99.90;;;;;;5033216;28;20206;-72
2022/09/27 05:09:18;;;;;;;26.00;19.87;;;13.10;99.90;;;;;;5039030;28;20618;-74
2022/09/27 05:11:45;;;;;;;26.23;19.80;;;13.10;99.90;;;;;;5032294;28;20218;-74
2022/09/27 05:14:12;;;;;;;29.23;21.13;;;13.10;99.90;;;;;;5033333;28;20211;-71
2022/09/27 05:16:39;;;;;;;27.33;19.40;;;13.10;99.90;;;;;;5018159;28;20204;-72
2022/09/27 05:19:08;;;;;;;24.53;20.03;;;13.10;99.90;;;;;;5033295;28;20207;-73
2022/09/27 05:21:34;;;;;;;28.90;20.63;;;13.10;99.90;;;;;;5034860;28;20213;-72
2022/09/27 05:24:01;;;;;;;32.00;21.40;;;13.10;99.90;;;;;;5023624;28;20601;-71
2022/09/27 05:26:28;;;;;;;30.87;21.17;;;13.00;99.90;;;;;;5023681;28;20719;-72
2022/09/27 05:28:55;;;;;;;29.53;21.23;;;13.00;99.90;;;;;;5019196;28;20219;-71
2022/09/27 05:31:22;;;;;;;31.63;22.70;;;12.90;99.90;;;;;;5032399;28;20218;-72
2022/09/27 05:33:49;;;;;;;31.37;23.13;;;12.90;99.90;;;;;;5033635;28;20248;-71
2022/09/27 05:36:17;;;;;;;31.97;21.77;;;13.00;99.90;;;;;;5026023;28;20208;-71
2022/09/27 05:38:44;;;;;;;30.73;22.90;;;13.00;99.90;;;;;;5022412;28;20583;-72
2022/09/27 05:41:11;;;;;;;35.23;22.17;;;13.00;99.90;;;;;;5026343;28;20647;-71
2022/09/27 05:43:38;;;;;;;31.93;22.63;;;12.90;99.90;;;;;;5031501;28;20215;-72
2022/09/27 05:46:05;;;;;;;32.33;22.97;;;12.90;99.90;;;;;;5026357;28;20679;-74
2022/09/27 05:48:32;;;;;;;34.83;22.93;;;12.90;99.90;;;;;;5014273;28;20207;-71
2022/09/27 05:50:59;;;;;;;30.73;22.70;;;12.90;99.90;;;;;;5031661;28;20245;-72
2022/09/27 05:53:27;;;;;;;36.65;24.10;;;12.90;99.90;;;;;;5019293;28;20465;-68
2022/09/27 05:55:54;;;;;;;43.22;30.10;;;13.00;99.90;;;;;;5013819;28;20524;-68
2022/09/27 05:58:21;;;;;;;41.60;29.88;;;12.90;99.90;;;;;;5029170;28;20443;-69
2022/09/27 06:00:48;;;;;;;39.37;24.07;;;12.90;99.90;;;;;;5024333;28;20211;-71
2022/09/27 06:03:14;;;;;;;35.30;23.53;;;12.90;99.90;;;;;;5027677;28;20207;-71
2022/09/27 06:05:41;;;;;;;36.70;22.83;;;13.00;99.90;;;;;;5025169;28;20241;-67
2022/09/27 06:08:10;;;;;;;62.53;34.60;;;13.00;99.90;;;;;;5023018;28;20456;-70
2022/09/27 06:10:40;;;;;;;43.10;26.67;;;13.00;99.90;;;;;;5031373;28;20689;-71
2022/09/27 06:13:08;;;;;;;41.33;25.77;;;13.10;99.90;;;;;;5024089;28;20305;-72
2022/09/27 06:15:38;;;;;;;38.27;25.03;;;13.10;99.90;;;;;;5028481;28;20215;-70
2022/09/27 06:18:06;;;;;;;47.53;28.40;;;13.20;99.90;;;;;;5026607;28;20607;-70
2022/09/27 06:20:34;;;;;;;30.83;21.60;;;13.20;99.90;;;;;;5031400;28;20195;-71
2022/09/27 06:23:06;;;;;;;32.87;20.23;;;13.20;99.90;;;;;;5031976;28;20254;-72
2022/09/27 06:25:33;;;;;;;31.63;20.30;;;13.20;99.90;;;;;;5024384;28;20342;-72
2022/09/27 06:28:01;;;;;;;35.27;21.30;;;13.20;99.90;;;;;;5024546;28;20580;-71
2022/09/27 06:30:28;;;;;;;33.60;21.50;;;13.10;99.90;;;;;;5028183;28;20252;-72
2022/09/27 06:32:57;;;;;;;32.50;20.63;;;13.10;99.90;;;;;;5033709;28;20316;-71
2022/09/27 06:35:24;;;;;;;32.37;20.60;;;13.10;99.90;;;;;;5029126;28;20219;-72
2022/09/27 06:37:52;;;;;;;32.47;20.50;;;13.10;99.90;;;;;;5034703;28;20235;-70
2022/09/27 06:40:19;;;;;;;27.90;18.07;;;13.10;99.90;;;;;;5026557;28;20198;-72
2022/09/27 06:42:46;;;;;;;25.13;16.97;;;13.00;99.90;;;;;;5021902;28;20211;-72
2022/09/27 06:45:14;;;;;;;27.07;16.70;;;13.00;99.90;;;;;;5033912;28;20276;-71
2022/09/27 06:47:41;;;;;;;25.40;17.97;;;12.90;99.90;;;;;;5027023;28;20202;-72
2022/09/27 06:50:09;;;;;;;24.73;16.60;;;12.90;99.90;;;;;;5035685;28;20218;-71
2022/09/27 06:52:36;;;;;;;27.07;17.23;;;13.20;99.90;;;;;;5027118;28;20214;-69
2022/09/27 06:55:04;;;;;;;27.17;16.43;;;12.70;99.90;;;;;;5034156;28;20205;-70
2022/09/27 07:00:23;;;;;;;22.10;15.20;;;12.60;99.90;;;;;;5023541;28;20570;-70
2022/09/27 07:02:50;;;;;;;25.20;16.17;;;12.60;99.90;;;;;;5027621;28;20210;-68
2022/09/27 07:05:17;;;;;;;27.20;17.07;;;12.60;99.90;;;;;;5034293;28;20234;-69
2022/09/27 07:07:46;;;;;;;31.42;18.45;;;12.50;99.90;;;;;;5032263;28;20472;-70
2022/09/27 07:10:12;;;;;;;27.40;18.97;;;12.60;99.90;;;;;;5030862;28;20532;-71
2022/09/27 07:12:40;;;;;;;31.33;16.93;;;12.60;99.90;;;;;;5031324;28;20211;-70
2022/09/27 07:15:07;;;;;;;29.00;16.17;;;12.60;99.90;;;;;;5025820;28;20210;-71
2022/09/27 07:17:36;;;;;;;34.87;17.70;;;12.60;99.90;;;;;;5029585;28;20679;-73
2022/09/27 07:20:03;;;;;;;31.40;17.40;;;12.60;99.90;;;;;;5027094;28;20206;-72
2022/09/27 07:22:29;;;;;;;22.60;14.63;;;12.70;99.90;;;;;;5033641;28;20317;-70
2022/09/27 07:24:56;;;;;;;24.73;14.93;;;12.70;99.90;;;;;;5022816;28;20217;-69
2022/09/27 07:27:25;;;;;;;24.47;14.63;;;12.70;99.90;;;;;;5033126;28;20214;-72
2022/09/27 07:29:52;;;;;;;24.80;15.00;;;12.80;99.90;;;;;;5028745;28;20245;-71
2022/09/27 07:32:20;;;;;;;22.73;15.40;;;12.90;99.90;;;;;;5031958;28;20237;-71
2022/09/27 07:34:48;;;;;;;24.33;14.73;;;12.90;99.90;;;;;;5029667;28;20206;-71
2022/09/27 07:37:16;;;;;;;24.97;14.97;;;12.90;99.90;;;;;;5030282;28;20210;-72
2022/09/27 07:39:43;;;;;;;21.13;13.87;;;13.00;99.90;;;;;;5029536;28;20209;-70
2022/09/27 07:42:10;;;;;;;25.80;14.60;;;13.00;99.90;;;;;;5027072;28;20227;-71
2022/09/27 07:44:36;;;;;;;24.70;15.17;;;13.00;99.90;;;;;;5033290;28;20207;-70
2022/09/27 07:47:06;;;;;;;30.30;15.83;;;13.00;99.90;;;;;;5035768;28;20210;-72
2022/09/27 07:49:33;;;;;;;23.33;14.40;;;13.00;99.90;;;;;;5033046;28;20218;-74
2022/09/27 07:52:02;;;;;;;23.47;14.97;;;13.00;99.90;;;;;;5029566;28;20242;-75
2022/09/27 07:54:29;;;;;;;27.40;14.70;;;13.00;99.90;;;;;;5026682;28;20198;-74
2022/09/27 07:56:56;;;;;;;26.87;16.20;;;13.00;99.90;;;;;;5031132;28;20832;-73
2022/09/27 07:59:23;;;;;;;27.27;15.93;;;12.90;99.90;;;;;;5033666;28;20634;-70
2022/09/27 08:01:49;;;;;;;24.87;16.27;;;13.00;99.90;;;;;;5032697;28;20213;-73
2022/09/27 08:04:16;;;;;;;26.00;15.73;;;13.00;99.90;;;;;;5037419;28;20210;-72
2022/09/27 08:06:43;;;;;;;22.43;14.07;;;13.00;99.90;;;;;;5034033;28;20678;-73
2022/09/27 08:09:11;;;;;;;22.83;15.07;;;13.00;99.90;;;;;;5028383;28;20194;-74
2022/09/27 08:11:38;;;;;;;23.70;15.20;;;13.00;99.90;;;;;;5035772;28;20249;-72
2022/09/27 08:14:05;;;;;;;20.60;14.70;;;13.00;99.90;;;;;;5035269;28;20214;-73
2022/09/27 08:16:33;;;;;;;23.10;13.60;;;13.10;99.90;;;;;;5026336;28;20285;-72
2022/09/27 08:19:00;;;;;;;22.83;15.23;;;13.10;99.90;;;;;;5022122;28;20305;-71
2022/09/27 08:21:27;;;;;;;21.13;15.27;;;13.10;99.90;;;;;;5025939;28;20216;-72
2022/09/27 08:23:55;;;;;;;24.50;15.43;;;13.20;99.90;;;;;;5020687;28;20243;-72
2022/09/27 08:26:23;;;;;;;21.83;14.73;;;13.20;99.90;;;;;;5023862;28;20211;-74
2022/09/27 08:28:50;;;;;;;22.50;15.00;;;13.30;99.90;;;;;;5031470;28;20210;-71
2022/09/27 08:31:16;;;;;;;26.10;15.10;;;13.00;99.90;;;;;;5028628;28;20238;-72
2022/09/27 08:33:43;;;;;;;20.83;15.37;;;13.40;99.90;;;;;;5015438;28;20226;-72
2022/09/27 08:36:11;;;;;;;24.47;16.63;;;13.40;99.90;;;;;;5021244;28;20210;-72
2022/09/27 08:38:38;;;;;;;25.37;15.83;;;13.40;99.90;;;;;;5034859;28;20222;-72
2022/09/27 08:41:11;;;;;;;24.57;15.90;;;13.50;99.90;;;;;;5016922;28;20199;-72
2022/09/27 08:43:48;;;;;;;24.17;15.80;;;13.50;99.90;;;;;;5018176;28;20207;-70
2022/09/27 08:46:26;;;;;;;21.40;15.30;;;13.60;99.90;;;;;;5026248;28;20726;-71
2022/09/27 08:49:00;;;;;;;21.73;14.83;;;13.60;99.90;;;;;;5025148;28;20214;-72
2022/09/27 08:51:31;;;;;;;19.97;13.83;;;13.60;99.90;;;;;;5018348;28;20526;-73
2022/09/27 08:54:04;;;;;;;20.23;15.70;;;13.60;99.90;;;;;;5022716;28;20218;-72
2022/09/27 08:56:32;;;;;;;19.73;14.97;;;13.70;99.90;;;;;;5020833;28;20207;-72
2022/09/27 08:59:06;;;;;;;21.57;14.43;;;13.70;99.90;;;;;;5034970;28;20659;-73
2022/09/27 09:01:33;;;;;;;20.53;14.63;;;13.80;99.90;;;;;;5023368;28;20203;-73
2022/09/27 09:04:03;;;;;;;19.97;14.67;;;13.80;99.90;;;;;;5022609;28;20625;-73
2022/09/27 09:06:37;;;;;;;18.90;14.37;;;13.90;99.90;;;;;;5016676;28;20279;-73
2022/09/27 09:09:14;;;;;;;18.07;14.40;;;13.90;99.90;;;;;;5014264;28;20203;-73
2022/09/27 09:15:06;;;;;;;20.20;14.47;;;14.10;99.90;;;;;;5019955;28;20206;-70
2022/09/27 09:17:49;;;;;;;20.47;15.40;;;14.10;99.90;;;;;;5020893;28;20246;-70
2022/09/27 09:20:35;;;;;;;20.67;15.90;;;14.10;99.90;;;;;;5029222;28;20566;-73
2022/09/27 09:23:24;;;;;;;22.13;15.20;;;14.10;99.90;;;;;;5029606;28;20244;-72
2022/09/27 09:25:58;;;;;;;20.30;15.17;;;14.10;99.90;;;;;;5031544;28;20203;-72
2022/09/27 09:28:38;;;;;;;18.60;14.67;;;14.20;99.90;;;;;;5035126;28;20207;-73
2022/09/27 09:31:12;;;;;;;18.50;14.97;;;14.40;99.90;;;;;;5022107;28;20234;-73
2022/09/27 09:33:43;;;;;;;20.00;14.80;;;14.50;99.90;;;;;;5027596;28;20198;-72
2022/09/27 09:36:20;;;;;;;20.33;14.83;;;14.60;99.90;;;;;;5021152;28;20207;-73
2022/09/27 09:38:51;;;;;;;19.03;15.23;;;14.60;99.90;;;;;;5028256;28;20206;-73
2022/09/27 09:41:22;;;;;;;17.13;13.50;;;14.50;99.90;;;;;;5029276;28;20194;-71
2022/09/27 09:43:54;;;;;;;17.63;14.47;;;14.50;99.90;;;;;;5033891;28;20191;-73
2022/09/27 09:46:27;;;;;;;18.60;14.27;;;14.60;99.90;;;;;;5032273;28;20729;-75
2022/09/27 09:48:58;;;;;;;22.97;14.47;;;14.60;99.90;;;;;;5030330;28;20206;-73
2022/09/27 09:51:33;;;;;;;18.77;13.43;;;14.60;99.90;;;;;;5031545;28;20215;-72
2022/09/27 09:54:07;;;;;;;17.60;13.57;;;14.60;99.90;;;;;;5033891;28;20233;-73
2022/09/27 09:56:39;;;;;;;16.20;13.10;;;14.50;99.90;;;;;;5025733;28;20214;-73
2022/09/27 09:59:12;;;;;;;18.13;14.93;;;14.60;99.90;;;;;;5031608;28;20210;-73
2022/09/27 10:01:42;;;;;;;19.07;13.97;;;14.70;99.90;;;;;;5033879;28;20206;-73
2022/09/27 10:04:15;;;;;;;16.87;13.60;;;14.80;99.90;;;;;;5034185;28;20230;-72
2022/09/27 10:06:41;;;;;;;17.17;13.13;;;14.90;99.90;;;;;;5030364;28;20269;-72
2022/09/27 10:09:11;;;;;;;14.77;12.40;;;14.90;99.90;;;;;;5033662;28;20540;-72
2022/09/27 10:11:41;;;;;;;15.20;11.97;;;15.00;99.90;;;;;;5030858;28;20223;-72
2022/09/27 10:14:11;;;;;;;13.90;11.03;;;14.90;99.90;;;;;;5032849;28;20202;-72
2022/09/27 10:16:42;;;;;;;15.83;12.50;;;14.90;99.90;;;;;;5021075;28;20301;-72
2022/09/27 10:19:10;;;;;;;14.60;12.27;;;14.90;99.90;;;;;;5027560;28;20261;-72
2022/09/27 10:21:44;;;;;;;15.20;12.97;;;14.80;99.90;;;;;;5013964;28;20295;-73
2022/09/27 10:24:13;;;;;;;15.40;13.07;;;14.70;99.90;;;;;;5016322;28;20243;-73
2022/09/27 10:26:42;;;;;;;17.97;14.27;;;14.70;99.90;;;;;;5031588;28;20207;-73
2022/09/27 10:29:24;;;;;;;18.87;13.83;;;14.60;99.90;;;;;;5034389;28;20194;-72
2022/09/27 10:31:53;;;;;;;18.60;14.50;;;14.60;99.90;;;;;;5025026;28;20214;-72
2022/09/27 10:34:29;;;;;;;15.27;13.23;;;14.60;99.90;;;;;;5033037;28;20738;-72
2022/09/27 10:37:05;;;;;;;16.83;13.80;;;14.60;99.90;;;;;;5033888;28;20272;-74
2022/09/27 10:39:32;;;;;;;16.90;13.87;;;14.60;99.90;;;;;;5032943;28;20229;-72
2022/09/27 10:41:59;;;;;;;16.77;13.30;;;14.70;99.90;;;;;;5034990;28;20214;-73
2022/09/27 10:44:27;;;;;;;18.50;13.87;;;14.70;99.90;;;;;;5028709;28;20379;-72
2022/09/27 10:46:58;;;;;;;16.33;13.90;;;14.70;99.90;;;;;;5023227;28;20207;-71
2022/09/27 10:49:29;;;;;;;18.73;14.87;;;14.60;99.90;;;;;;5027681;28;20206;-72
2022/09/27 10:51:57;;;;;;;19.73;14.60;;;14.60;99.90;;;;;;5034076;28;20225;-74
2022/09/27 10:54:27;;;;;;;18.43;15.37;;;14.50;99.90;;;;;;5031672;28;20210;-75
2022/09/27 10:56:59;;;;;;;19.90;16.27;;;14.40;99.90;;;;;;5034536;28;20202;-74
2022/09/27 10:59:29;;;;;;;18.83;15.23;;;14.40;99.90;;;;;;5032691;28;20211;-74
2022/09/27 11:01:58;;;;;;;18.77;14.60;;;14.30;99.90;;;;;;5025721;28;20213;-74
2022/09/27 11:04:29;;;;;;;17.27;15.07;;;14.20;99.90;;;;;;5037123;28;20218;-74
2022/09/27 11:07:11;;;;;;;15.70;14.10;;;14.20;99.90;;;;;;5035578;28;20249;-75
2022/09/27 11:09:51;;;;;;;17.83;14.70;;;14.20;99.90;;;;;;5023021;28;20207;-76
2022/09/27 11:12:20;;;;;;;18.23;15.73;;;14.20;99.90;;;;;;5016290;28;20579;-76
2022/09/27 11:14:53;;;;;;;18.17;14.70;;;14.20;99.90;;;;;;5019294;28;20234;-73
2022/09/27 11:17:27;;;;;;;20.03;16.37;;;14.20;99.90;;;;;;5020114;28;20572;-74
2022/09/27 11:20:05;;;;;;;18.60;16.03;;;14.20;99.90;;;;;;5027528;28;20629;-72
2022/09/27 11:23:02;;;;;;;18.77;15.90;;;14.20;99.90;;;;;;5026961;28;20231;-71
2022/09/27 11:25:38;;;;;;;19.33;15.97;;;14.30;99.90;;;;;;5025929;28;20203;-71
2022/09/27 11:28:21;;;;;;;17.73;15.10;;;14.30;99.90;;;;;;5016238;28;20203;-71
2022/09/27 11:30:57;;;;;;;17.77;15.23;;;14.40;99.90;;;;;;5015723;28;20703;-71
2022/09/27 11:33:46;;;;;;;19.03;15.40;;;14.40;99.90;;;;;;5021256;28;20202;-72
2022/09/27 11:36:19;;;;;;;17.93;15.10;;;14.40;99.90;;;;;;5030431;28;20215;-73
2022/09/27 11:39:01;;;;;;;23.70;16.53;;;14.50;99.90;;;;;;5030693;28;20326;-71
2022/09/27 11:41:40;;;;;;;18.67;15.10;;;14.50;99.90;;;;;;5030178;28;20561;-72
2022/09/27 11:44:25;;;;;;;18.23;16.13;;;14.50;99.90;;;;;;5019035;28;20214;-73
2022/09/27 11:46:59;;;;;;;17.70;15.23;;;14.60;99.90;;;;;;5016971;28;20195;-74
2022/09/27 11:49:48;;;;;;;21.17;15.90;;;14.60;99.90;;;;;;5017175;28;20616;-71
2022/09/27 11:52:33;;;;;;;18.83;16.70;;;14.60;99.90;;;;;;5021811;28;20313;-71
2022/09/27 11:55:14;;;;;;;17.27;15.40;;;14.60;99.90;;;;;;5032874;28;20297;-72
2022/09/27 11:57:46;;;;;;;18.90;16.37;;;14.70;99.90;;;;;;5027943;28;20206;-71
2022/09/27 12:00:19;;;;;;;18.53;16.53;;;14.70;99.90;;;;;;5028334;28;20203;-71
2022/09/27 12:03:07;;;;;;;20.60;16.57;;;14.80;99.90;;;;;;5025745;28;20294;-71
2022/09/27 12:05:47;;;;;;;33.93;19.23;;;14.80;99.90;;;;;;5030895;28;20206;-74
2022/09/27 12:08:32;;;;;;;25.40;15.90;;;14.80;99.90;;;;;;5031002;28;20217;-70
2022/09/27 12:11:08;;;;;;;22.23;17.47;;;14.80;99.90;;;;;;5031564;28;20217;-71
2022/09/27 12:13:39;;;;;;;21.47;15.50;;;14.80;99.90;;;;;;5034623;28;20213;-74
2022/09/27 12:16:07;;;;;;;16.83;15.03;;;14.90;99.90;;;;;;5032642;28;20211;-74
2022/09/27 12:18:38;;;;;;;18.50;16.65;;;15.00;99.90;;;;;;5034303;28;20886;-75
2022/09/27 12:21:09;;;;;;;20.48;18.35;;;15.10;99.90;;;;;;5035494;28;20441;-76
2022/09/27 12:23:41;;;;;;;18.17;15.60;;;15.10;99.90;;;;;;5035842;28;20242;-76
2022/09/27 12:26:13;;;;;;;17.77;15.88;;;15.20;99.90;;;;;;5028015;28;20368;-76
2022/09/27 12:28:48;;;;;;;23.88;17.17;;;15.30;99.90;;;;;;5033442;28;20193;-75
2022/09/27 12:31:20;;;;;;;20.38;16.13;;;15.30;99.90;;;;;;5036016;28;20475;-74
2022/09/27 12:33:57;;;;;;;27.25;17.40;;;15.30;99.90;;;;;;5029394;28;20266;-75
2022/09/27 12:36:34;;;;;;;13.27;11.87;;;15.30;99.90;;;;;;5024956;28;20220;-74
2022/09/27 12:39:07;;;;;;;16.17;14.07;;;15.30;99.90;;;;;;5029208;28;20213;-73
2022/09/27 12:41:46;;;;;;;21.53;14.93;;;15.20;99.90;;;;;;5027698;28;20262;-77
2022/09/27 12:44:13;;;;;;;16.50;12.90;;;15.30;99.90;;;;;;5038088;28;20199;-74
2022/09/27 12:46:52;;;;;;;13.10;11.80;;;15.30;99.90;;;;;;5039682;28;20357;-78
2022/09/27 12:49:31;;;;;;;13.67;12.27;;;15.30;99.90;;;;;;5039595;28;20209;-78
2022/09/27 12:52:03;;;;;;;13.33;11.53;;;15.40;99.90;;;;;;5034330;28;20198;-79
2022/09/27 12:54:54;;;;;;;12.67;11.30;;;15.50;99.90;;;;;;5040394;28;20676;-79